メインページ
METAR-TAF:

METAR-TAF

空港 :

サーニア, オンタリオ州, カナダ

緯度: 43-00N, 経度: 082-19W, 海抜: 181m

現時点の気象観測

当レポートは55分前の17:00(UTC)に作成
の風 5kt、から南東の間で変化する
気温 24°C
湿度 61%
気圧 1015 hPa
視程: 14.5km
高度22000ftの雲は散在している

METAR: CYZR 211700Z AUTO 01005KT 350V140 9SM SCT220 24/16 A2996 RMK SLP144 DENSITY ALT 1700FT

時間: 13:55 (17:55 UTC)

予報

当レポートは4時間17分前の13:38(UTC)に作成
予報は21日の 14時(UTC)から 22日の 02時(UTC)まで有効
の風 10kt
視程: 10km
高度4000ftの雲は散在している
高度13000ftの千切れ雲あり
21日の 14時(UTC)から 21日の 18時(UTC)まで一時的に
視程: 10km
高度4000ftの千切れ雲あり
弱いにわか雨
21日の 1800時(UTC)から
北東の風 5kt
視程: 10km
高度6000ftの千切れ雲あり
高度14000ftの千切れ雲あり

TAF: CYZR 211338Z 2114/2202 36010KT P6SM SCT040 BKN130 TEMPO 2114/2118 P6SM -SHRA BKN040 FM211800 04005KT P6SM BKN060 BKN140 RMK FCST BASED ON AUTO OBS. NXT FCST BY 212000Z

4,000以上の空港の気象観測と天気予報(METAR報とTAF報)

利用可能な観測所は地図上に黄色い丸と赤い丸で示す。

丸の上にカーソルを重ねると観測所名を参照できる。

次にクリックすると気象観測と天気予報を参照できる。

マップの切り替え:黒色「×」印の緑ボタンをクリックして拡大、「-」印の緑ボタンをクリックして縮小、緑色の三角印をクリックして隣りの地図に切り替え


METAR-TAF: